Time;durP1;ratioP1;P1;durP2;ratioP2;P2;SDS_P1;SDS_P2;PMS_P1;PMS_P2;Temp;Humidity;BMP_temperature;BMP_pressure;BME280_temperature;BME280_humidity;BME280_pressure;Samples;Min_cycle;Max_cycle;Signal;HPM_P1;HPM_P2
2023/01/20 00:01:05;;;;;;;33.83;12.50;;;3.70;99.90;;;;;;5065779;28;20479;-60
2023/01/20 00:03:32;;;;;;;75.83;19.47;;;3.70;99.90;;;;;;5046104;28;20485;-60
2023/01/20 00:05:58;;;;;;;40.30;14.27;;;3.80;99.90;;;;;;5075103;28;20482;-59
2023/01/20 00:08:26;;;;;;;44.00;14.03;;;3.80;99.90;;;;;;5063646;28;20974;-59
2023/01/20 00:10:54;;;;;;;43.70;13.97;;;3.80;99.90;;;;;;5077499;28;20486;-60
2023/01/20 00:13:20;;;;;;;47.00;15.47;;;3.70;99.70;;;;;;5065159;28;20475;-60
2023/01/20 00:15:47;;;;;;;33.73;13.43;;;3.60;99.80;;;;;;5050575;28;20486;-60
2023/01/20 00:18:15;;;;;;;35.07;12.40;;;3.60;99.90;;;;;;5065989;28;21162;-60
2023/01/20 00:20:43;;;;;;;55.03;15.40;;;;;;;;;;5052143;28;20485;-60
2023/01/20 00:23:10;;;;;;;40.17;15.40;;;;;;;;;;5073204;28;20575;-60
2023/01/20 00:25:38;;;;;;;60.53;18.47;;;3.70;99.90;;;;;;5063019;28;20864;-59
2023/01/20 00:28:05;;;;;;;36.23;13.53;;;3.70;99.90;;;;;;5057391;28;20477;-60
2023/01/20 00:30:32;;;;;;;39.20;13.93;;;3.70;99.90;;;;;;5068691;28;20475;-59
2023/01/20 00:32:59;;;;;;;47.90;15.00;;;;;;;;;;5050130;28;20479;-59
2023/01/20 00:35:26;;;;;;;40.93;14.00;;;3.70;99.90;;;;;;5050423;28;20526;-60
2023/01/20 00:37:52;;;;;;;39.90;13.33;;;3.70;99.90;;;;;;5039636;28;20479;-60
2023/01/20 00:40:19;;;;;;;49.93;14.50;;;3.60;99.90;;;;;;5049831;28;20556;-60
2023/01/20 00:42:47;;;;;;;36.93;14.67;;;3.60;99.90;;;;;;5065818;28;20803;-60
2023/01/20 00:45:14;;;;;;;32.43;14.20;;;3.70;99.90;;;;;;5072315;28;21184;-60
2023/01/20 00:47:40;;;;;;;43.60;15.17;;;3.70;99.90;;;;;;5074035;28;20494;-60
2023/01/20 00:50:08;;;;;;;34.47;12.03;;;3.70;99.90;;;;;;5072667;28;20714;-59
2023/01/20 00:52:35;;;;;;;69.40;19.33;;;3.70;99.90;;;;;;5061935;27;20500;-60
2023/01/20 00:55:01;;;;;;;49.20;16.40;;;3.70;99.90;;;;;;5077064;27;20868;-60
2023/01/20 00:57:28;;;;;;;40.50;13.77;;;3.60;99.90;;;;;;5061554;28;20480;-60
2023/01/20 00:59:56;;;;;;;41.23;12.50;;;;;;;;;;5074763;28;20473;-59
2023/01/20 01:02:23;;;;;;;58.53;15.80;;;;;;;;;;5053223;28;20483;-60
2023/01/20 01:04:50;;;;;;;56.53;15.47;;;3.10;99.90;;;;;;5044045;28;20989;-59
2023/01/20 01:07:17;;;;;;;29.90;12.87;;;3.20;99.90;;;;;;5055667;28;20470;-59
2023/01/20 01:09:44;;;;;;;31.90;13.67;;;3.20;99.90;;;;;;5054318;28;20972;-60
2023/01/20 01:12:11;;;;;;;41.23;13.97;;;3.30;99.90;;;;;;5047326;28;20493;-60
2023/01/20 01:14:37;;;;;;;61.93;19.37;;;3.20;99.90;;;;;;5070612;28;20486;-59
2023/01/20 01:17:05;;;;;;;39.17;14.67;;;3.20;99.90;;;;;;5046594;28;20931;-60
2023/01/20 01:19:32;;;;;;;55.13;18.83;;;3.10;99.90;;;;;;5045671;28;20841;-60
2023/01/20 01:21:59;;;;;;;41.30;16.37;;;3.00;99.90;;;;;;5050228;28;20484;-60
2023/01/20 01:24:25;;;;;;;52.33;16.07;;;3.10;99.90;;;;;;5070615;28;20477;-60
2023/01/20 01:26:53;;;;;;;47.63;15.90;;;3.20;99.90;;;;;;5048769;28;20474;-60
2023/01/20 01:29:20;;;;;;;36.87;13.23;;;3.30;99.90;;;;;;5066118;28;21609;-60
2023/01/20 01:31:47;;;;;;;40.50;14.07;;;;;;;;;;5056744;28;20498;-60
2023/01/20 01:34:15;;;;;;;26.03;12.10;;;3.10;99.90;;;;;;5077903;27;21088;-60
2023/01/20 01:36:42;;;;;;;63.90;17.63;;;2.90;99.90;;;;;;5048402;28;20482;-59
2023/01/20 01:39:09;;;;;;;51.17;16.17;;;;;;;;;;5049138;28;20456;-60
2023/01/20 01:41:36;;;;;;;49.77;16.57;;;2.70;99.90;;;;;;5057879;28;20486;-60
2023/01/20 01:44:07;;;;;;;61.50;16.70;;;2.80;99.90;;;;;;5047136;28;21022;-60
2023/01/20 01:46:35;;;;;;;73.33;20.90;;;2.90;99.90;;;;;;5073371;28;20999;-60
2023/01/20 01:49:04;;;;;;;44.07;14.33;;;;;;;;;;5073332;28;20849;-60
2023/01/20 01:51:35;;;;;;;46.50;17.00;;;3.00;99.90;;;;;;5057628;28;20989;-60
2023/01/20 01:54:09;;;;;;;49.33;15.33;;;2.90;99.90;;;;;;5054676;28;20482;-60
2023/01/20 01:56:37;;;;;;;39.20;17.80;;;3.10;99.90;;;;;;5065185;28;20781;-60
2023/01/20 01:59:04;;;;;;;45.80;13.97;;;;;;;;;;5057765;28;20494;-60
2023/01/20 02:01:32;;;;;;;56.97;16.03;;;3.20;99.90;;;;;;5046014;28;20483;-60
2023/01/20 02:04:01;;;;;;;43.40;15.63;;;;;;;;;;5049506;28;20841;-60
2023/01/20 02:06:33;;;;;;;42.07;15.80;;;3.20;99.90;;;;;;5067176;28;21941;-59
2023/01/20 02:09:01;;;;;;;52.80;14.00;;;3.20;99.90;;;;;;5056065;28;20473;-61
2023/01/20 02:11:29;;;;;;;44.13;14.00;;;3.20;99.90;;;;;;5084153;28;20946;-59
2023/01/20 02:13:56;;;;;;;39.57;14.13;;;3.20;99.90;;;;;;5070325;28;20486;-59
2023/01/20 02:16:33;;;;;;;59.37;16.97;;;3.20;99.90;;;;;;5053074;28;20471;-60
2023/01/20 02:19:15;;;;;;;45.93;15.17;;;3.20;99.90;;;;;;5043369;28;20466;-60
2023/01/20 02:22:18;;;;;;;43.53;13.57;;;3.10;99.90;;;;;;5056492;28;20486;-59
2023/01/20 02:25:28;;;;;;;43.80;14.67;;;3.00;99.90;;;;;;5035833;28;21655;-60
2023/01/20 02:28:37;;;;;;;42.23;11.80;;;3.00;99.90;;;;;;5071697;28;20886;-60
2023/01/20 02:31:24;;;;;;;54.43;13.47;;;2.90;99.90;;;;;;5041296;28;20505;-60
2023/01/20 02:34:00;;;;;;;40.63;12.60;;;2.90;99.90;;;;;;5053344;28;20479;-59
2023/01/20 02:36:32;;;;;;;50.43;15.17;;;3.00;99.90;;;;;;5068600;28;20485;-59
2023/01/20 02:39:02;;;;;;;53.03;17.33;;;;;;;;;;5060206;28;20487;-59
2023/01/20 02:41:37;;;;;;;49.87;15.87;;;3.80;99.90;;;;;;5060513;28;20493;-60
2023/01/20 02:44:13;;;;;;;51.70;15.50;;;2.90;99.90;;;;;;5073620;28;20492;-59
2023/01/20 02:46:48;;;;;;;68.97;18.10;;;2.90;99.80;;;;;;5057588;28;20493;-59
2023/01/20 02:49:18;;;;;;;43.33;13.03;;;;;;;;;;5068918;28;20490;-60
2023/01/20 02:51:51;;;;;;;47.33;13.80;;;;;;;;;;5079305;28;20487;-59
2023/01/20 02:54:19;;;;;;;52.30;16.13;;;;;;;;;;5049268;28;20475;-59
2023/01/20 02:56:47;;;;;;;34.90;12.73;;;2.50;99.30;;;;;;5087692;28;20494;-59
2023/01/20 02:59:17;;;;;;;34.47;15.50;;;2.30;99.80;;;;;;5057716;28;20491;-59
2023/01/20 03:01:48;;;;;;;58.47;15.27;;;;;;;;;;5053351;28;20913;-59
2023/01/20 03:04:20;;;;;;;32.10;12.47;;;2.30;99.90;;;;;;5078602;28;20506;-59
2023/01/20 03:06:50;;;;;;;48.70;13.70;;;;;;;;;;5057769;28;20476;-60
2023/01/20 03:09:21;;;;;;;22.90;8.70;;;2.00;99.90;;;;;;5076753;28;20493;-59
2023/01/20 03:11:51;;;;;;;63.87;15.60;;;;;;;;;;5070480;28;20987;-59
2023/01/20 03:14:36;;;;;;;63.00;18.17;;;2.00;99.90;;;;;;4999910;28;20486;-59
2023/01/20 03:17:03;;;;;;;48.87;14.90;;;;;;;;;;5071293;28;20477;-59
2023/01/20 03:19:31;;;;;;;67.07;17.47;;;2.00;99.90;;;;;;5062024;28;20474;-59
2023/01/20 03:21:58;;;;;;;35.90;12.90;;;2.00;99.90;;;;;;5054761;28;20485;-59
2023/01/20 03:24:29;;;;;;;34.03;12.63;;;2.90;99.90;;;;;;5084566;28;20475;-59
2023/01/20 03:26:56;;;;;;;45.80;14.80;;;1.90;99.90;;;;;;5074472;28;20486;-59
2023/01/20 03:29:22;;;;;;;40.80;13.20;;;2.00;99.80;;;;;;5084018;28;20487;-59
2023/01/20 03:31:53;;;;;;;41.43;11.20;;;2.00;99.60;;;;;;5064525;28;20994;-59
2023/01/20 03:34:21;;;;;;;34.30;13.47;;;;;;;;;;5073184;28;20482;-59
2023/01/20 03:36:52;;;;;;;45.57;13.50;;;2.00;99.30;;;;;;5055463;28;20986;-59
2023/01/20 03:39:19;;;;;;;42.17;11.47;;;;;;;;;;5046876;28;20487;-59
2023/01/20 03:41:59;;;;;;;37.27;12.00;;;2.00;99.60;;;;;;5076115;28;21012;-59
2023/01/20 03:44:33;;;;;;;57.80;14.93;;;2.00;99.70;;;;;;5078766;28;20836;-59
2023/01/20 03:47:09;;;;;;;48.67;15.60;;;2.00;99.30;;;;;;5038851;28;20979;-59
2023/01/20 03:49:38;;;;;;;56.83;15.87;;;;;;;;;;5066559;28;20481;-59
2023/01/20 03:52:17;;;;;;;36.57;13.90;;;2.00;99.00;;;;;;5073610;28;20846;-59
2023/01/20 03:54:50;;;;;;;32.97;14.00;;;1.80;99.20;;;;;;5052405;28;20494;-59
2023/01/20 03:57:21;;;;;;;36.43;11.97;;;1.80;99.50;;;;;;5081939;28;20488;-59
2023/01/20 03:59:49;;;;;;;48.63;12.93;;;;;;;;;;5054365;28;20861;-59
2023/01/20 04:02:16;;;;;;;38.47;12.37;;;1.60;99.90;;;;;;5060531;28;20477;-59
2023/01/20 04:04:46;;;;;;;34.97;14.47;;;1.70;99.90;;;;;;5066726;28;20486;-59
2023/01/20 04:07:17;;;;;;;40.23;13.23;;;;;;;;;;5043623;28;20590;-59
2023/01/20 04:09:47;;;;;;;47.80;12.40;;;1.80;99.70;;;;;;5062065;28;20485;-59
2023/01/20 04:12:14;;;;;;;30.37;11.57;;;;;;;;;;5062336;28;20481;-59
2023/01/20 04:14:41;;;;;;;50.77;13.60;;;1.80;99.40;;;;;;5075546;28;20490;-58
2023/01/20 04:17:10;;;;;;;42.93;13.20;;;1.60;99.60;;;;;;5082661;28;20489;-59
2023/01/20 04:19:37;;;;;;;57.90;15.00;;;1.70;99.90;;;;;;5074757;28;20508;-59
2023/01/20 04:22:09;;;;;;;39.17;12.40;;;1.70;99.90;;;;;;5053424;28;20487;-59
2023/01/20 04:24:41;;;;;;;61.67;16.90;;;;;;;;;;5054945;28;20586;-59
2023/01/20 04:27:07;;;;;;;48.60;13.40;;;1.50;99.90;;;;;;5082301;27;20480;-59
2023/01/20 04:29:34;;;;;;;79.70;19.37;;;1.50;99.90;;;;;;5058155;28;21000;-59
2023/01/20 04:32:02;;;;;;;39.10;13.33;;;1.60;99.90;;;;;;5061445;28;20478;-59
2023/01/20 04:34:29;;;;;;;74.27;17.87;;;;;;;;;;5070952;28;21116;-59
2023/01/20 04:36:56;;;;;;;45.20;13.60;;;1.90;99.90;;;;;;5064532;28;20824;-59
2023/01/20 04:39:23;;;;;;;60.20;14.50;;;-1.20;99.00;;;;;;5075895;28;20479;-60
2023/01/20 04:41:51;;;;;;;53.67;13.50;;;2.00;99.90;;;;;;5060437;28;21022;-60
2023/01/20 04:44:17;;;;;;;34.40;13.90;;;2.00;99.90;;;;;;5058931;28;20491;-60
2023/01/20 04:46:47;;;;;;;46.20;14.00;;;2.00;99.90;;;;;;5054670;28;20484;-60
2023/01/20 04:49:14;;;;;;;44.97;15.80;;;;;;;;;;5059329;28;20483;-60
2023/01/20 04:51:41;;;;;;;43.27;13.87;;;2.10;99.90;;;;;;5057382;28;20500;-60
2023/01/20 04:54:08;;;;;;;21.47;10.77;;;2.10;99.90;;;;;;5057892;28;20485;-60
2023/01/20 04:56:34;;;;;;;50.47;19.20;;;3.10;99.90;;;;;;5070409;28;20860;-59
2023/01/20 04:59:02;;;;;;;40.23;14.63;;;2.00;99.90;;;;;;5042584;28;21013;-60
2023/01/20 05:01:29;;;;;;;40.93;14.37;;;2.10;99.90;;;;;;5066456;28;20874;-59
2023/01/20 05:03:56;;;;;;;52.90;12.37;;;2.10;99.90;;;;;;5057918;28;20483;-60
2023/01/20 05:06:23;;;;;;;53.57;14.30;;;2.00;99.90;;;;;;5046259;28;21093;-60
2023/01/20 05:08:50;;;;;;;46.13;17.00;;;2.00;99.90;;;;;;5048262;28;20876;-59
2023/01/20 05:11:17;;;;;;;43.70;14.53;;;;;;;;;;5052654;28;20804;-59
2023/01/20 05:13:44;;;;;;;40.10;14.33;;;;;;;;;;5052818;28;20839;-59
2023/01/20 05:16:12;;;;;;;33.90;13.27;;;1.80;99.90;;;;;;5049773;28;21200;-59
2023/01/20 05:18:39;;;;;;;52.03;18.53;;;1.90;99.90;;;;;;5051172;28;20483;-59
2023/01/20 05:21:07;;;;;;;49.37;12.73;;;;;;;;;;5056819;28;20487;-59
2023/01/20 05:23:34;;;;;;;64.67;18.53;;;;;;;;;;5055544;28;20922;-60
2023/01/20 05:26:01;;;;;;;38.03;9.77;;;1.80;99.90;;;;;;5056218;28;20463;-60
2023/01/20 05:28:28;;;;;;;64.87;13.80;;;1.50;99.90;;;;;;5066561;28;21160;-60
2023/01/20 05:30:54;;;;;;;43.10;15.00;;;1.50;99.90;;;;;;5067165;28;20483;-60
2023/01/20 05:33:22;;;;;;;35.83;15.10;;;1.50;99.90;;;;;;5055843;28;21009;-59
2023/01/20 05:35:49;;;;;;;69.33;17.40;;;1.70;99.90;;;;;;5055876;28;20822;-60
2023/01/20 05:38:15;;;;;;;44.10;15.40;;;1.70;99.90;;;;;;5040052;28;20467;-59
2023/01/20 05:40:42;;;;;;;47.10;15.90;;;1.70;99.90;;;;;;5088518;28;20490;-59
2023/01/20 05:43:09;;;;;;;56.73;15.60;;;1.80;99.90;;;;;;5044004;28;20476;-60
2023/01/20 05:45:35;;;;;;;72.60;18.20;;;1.90;99.90;;;;;;5062221;28;20481;-60
2023/01/20 05:48:03;;;;;;;70.03;18.63;;;1.70;99.90;;;;;;5062116;28;20492;-60
2023/01/20 05:50:31;;;;;;;61.90;17.10;;;1.70;99.90;;;;;;5069434;28;20488;-60
2023/01/20 05:52:59;;;;;;;46.20;13.60;;;1.70;99.90;;;;;;5070292;28;20483;-59
2023/01/20 05:55:25;;;;;;;49.27;16.57;;;1.60;99.90;;;;;;5051917;28;20849;-60
2023/01/20 05:57:53;;;;;;;55.00;16.57;;;;;;;;;;5066484;28;21242;-60
2023/01/20 06:00:20;;;;;;;53.63;17.30;;;;;;;;;;5073736;28;20477;-59
2023/01/20 06:02:47;;;;;;;58.20;17.60;;;1.70;99.90;;;;;;5076952;28;20506;-60
2023/01/20 06:05:13;;;;;;;60.93;15.90;;;1.90;99.90;;;;;;5061671;28;20485;-60
2023/01/20 06:07:42;;;;;;;79.33;20.53;;;2.00;99.90;;;;;;5058540;28;21513;-61
2023/01/20 06:10:10;;;;;;;41.40;14.87;;;;;;;;;;5048302;28;20487;-59
2023/01/20 06:12:36;;;;;;;71.10;19.30;;;2.00;99.90;;;;;;5056850;28;20490;-60
2023/01/20 06:15:04;;;;;;;48.70;14.50;;;1.90;99.90;;;;;;5068194;28;20960;-59
2023/01/20 06:17:31;;;;;;;83.13;22.93;;;1.10;99.90;;;;;;5052209;28;20479;-60
2023/01/20 06:19:59;;;;;;;52.00;15.73;;;;;;;;;;5056311;28;20485;-59
2023/01/20 06:22:26;;;;;;;50.00;18.90;;;1.70;99.90;;;;;;5071009;28;20479;-60
2023/01/20 06:24:54;;;;;;;68.00;19.77;;;1.60;99.90;;;;;;5058822;28;20482;-60
2023/01/20 06:27:21;;;;;;;51.57;17.37;;;1.60;99.90;;;;;;5046655;28;20928;-60
2023/01/20 06:29:49;;;;;;;52.97;16.13;;;;;;;;;;5045271;28;20475;-59
2023/01/20 06:32:16;;;;;;;50.90;19.07;;;1.60;99.90;;;;;;5075003;28;20747;-59
2023/01/20 06:34:43;;;;;;;47.73;17.03;;;1.80;99.90;;;;;;5052209;28;21049;-60
2023/01/20 06:37:09;;;;;;;50.37;16.27;;;2.00;99.90;;;;;;5047534;28;20789;-60
2023/01/20 06:39:36;;;;;;;59.93;20.60;;;2.10;99.90;;;;;;5064273;28;20483;-60
2023/01/20 06:42:04;;;;;;;46.50;12.77;;;1.90;99.90;;;;;;5049587;28;20934;-60
2023/01/20 06:44:32;;;;;;;49.67;15.37;;;1.80;99.90;;;;;;5069554;28;20516;-59
2023/01/20 06:46:59;;;;;;;39.53;11.67;;;1.70;99.90;;;;;;5039557;28;20490;-59
2023/01/20 06:49:26;;;;;;;59.43;16.47;;;1.60;99.90;;;;;;5043202;28;20482;-60
2023/01/20 06:51:53;;;;;;;48.33;17.53;;;1.60;99.90;;;;;;5084955;28;21000;-60
2023/01/20 06:54:20;;;;;;;30.43;13.00;;;1.60;99.90;;;;;;5060139;28;20487;-60
2023/01/20 06:56:46;;;;;;;70.20;21.33;;;0.70;99.90;;;;;;5039205;28;20841;-60
2023/01/20 06:59:14;;;;;;;71.07;20.07;;;1.70;99.90;;;;;;5042340;28;20469;-60
2023/01/20 07:01:41;;;;;;;80.67;22.63;;;1.80;99.90;;;;;;5062598;28;20471;-60
2023/01/20 07:04:10;;;;;;;49.53;14.37;;;;;;;;;;5051657;28;20484;-59
2023/01/20 07:06:38;;;;;;;69.37;21.80;;;1.90;99.90;;;;;;5040067;28;20469;-59
2023/01/20 07:09:06;;;;;;;64.97;18.53;;;;;;;;;;5062999;28;20478;-59
2023/01/20 07:11:34;;;;;;;81.53;21.23;;;;;;;;;;5067958;28;20483;-59
2023/01/20 07:14:01;;;;;;;44.80;15.83;;;1.60;99.90;;;;;;5031083;28;20490;-59
2023/01/20 07:16:29;;;;;;;76.13;23.93;;;;;;;;;;5083786;28;20482;-59
2023/01/20 07:18:56;;;;;;;63.97;20.60;;;1.60;99.90;;;;;;5046098;28;20477;-59
2023/01/20 07:21:23;;;;;;;61.53;18.77;;;1.60;99.90;;;;;;5075756;28;20948;-59
2023/01/20 07:23:50;;;;;;;57.17;18.33;;;1.70;99.90;;;;;;5071909;27;20562;-59
2023/01/20 07:26:19;;;;;;;63.30;22.90;;;;;;;;;;5054170;27;20479;-59
2023/01/20 07:28:46;;;;;;;61.37;20.80;;;;;;;;;;5040398;28;20494;-59
2023/01/20 07:31:15;;;;;;;40.97;15.80;;;2.00;99.90;;;;;;5066671;28;20490;-59
2023/01/20 07:33:44;;;;;;;64.43;19.83;;;;;;;;;;5048387;28;20481;-60
2023/01/20 07:36:12;;;;;;;45.37;16.67;;;6.20;99.90;;;;;;5074863;28;20481;-59
2023/01/20 07:38:39;;;;;;;75.53;20.20;;;2.00;99.90;;;;;;5077679;28;20481;-60
2023/01/20 07:41:07;;;;;;;60.23;19.00;;;;;;;;;;5064131;28;20487;-59
2023/01/20 07:43:34;;;;;;;74.13;21.63;;;1.80;99.90;;;;;;5052146;28;20488;-59
2023/01/20 07:46:02;;;;;;;54.93;17.27;;;1.70;99.90;;;;;;5061342;28;20483;-59
2023/01/20 07:48:30;;;;;;;74.13;20.50;;;;;;;;;;5035967;28;20487;-59
2023/01/20 07:51:02;;;;;;;57.20;16.80;;;1.70;99.90;;;;;;5056568;27;20481;-59
2023/01/20 07:53:29;;;;;;;60.27;18.07;;;;;;;;;;5061132;28;20562;-59
2023/01/20 07:55:56;;;;;;;65.27;18.20;;;;;;;;;;5057814;28;20604;-59
2023/01/20 07:58:23;;;;;;;63.27;19.70;;;2.10;99.90;;;;;;5061249;28;20475;-59
2023/01/20 08:00:49;;;;;;;54.27;16.57;;;2.20;99.90;;;;;;5056352;28;20477;-59
2023/01/20 08:03:16;;;;;;;50.90;17.70;;;2.30;99.90;;;;;;5068948;28;21016;-59
2023/01/20 08:05:43;;;;;;;74.57;20.20;;;;;;;;;;5062433;28;20860;-60
2023/01/20 08:08:11;;;;;;;47.33;16.57;;;;;;;;;;5060997;28;20498;-59
2023/01/20 08:10:38;;;;;;;76.07;23.73;;;2.30;99.90;;;;;;5067807;27;20838;-59
2023/01/20 08:13:05;;;;;;;59.00;21.57;;;2.10;99.90;;;;;;5055381;28;20478;-59
2023/01/20 08:15:32;;;;;;;84.60;24.23;;;2.20;99.90;;;;;;5046018;28;21050;-59
2023/01/20 08:17:59;;;;;;;73.57;20.33;;;2.40;99.90;;;;;;5046862;28;20479;-59
2023/01/20 08:20:26;;;;;;;78.47;24.50;;;;;;;;;;5062137;28;21095;-59
2023/01/20 08:22:52;;;;;;;72.97;26.10;;;3.50;99.90;;;;;;5050488;28;21064;-60
2023/01/20 08:25:20;;;;;;;85.10;28.07;;;4.30;99.90;;;;;;5057363;28;20485;-60
2023/01/20 08:27:48;;;;;;;63.00;23.30;;;5.00;99.90;;;;;;5074235;27;20485;-60
2023/01/20 08:30:15;;;;;;;57.37;22.90;;;5.60;99.90;;;;;;5051790;28;21359;-60
2023/01/20 08:32:42;;;;;;;51.00;21.93;;;6.00;98.30;;;;;;5069686;28;20484;-60
2023/01/20 08:35:09;;;;;;;40.53;18.53;;;;;;;;;;5045741;28;20475;-60
2023/01/20 08:37:36;;;;;;;70.97;23.30;;;;;;;;;;5061655;28;21171;-60
2023/01/20 08:40:06;;;;;;;54.13;20.97;;;7.30;96.70;;;;;;5050598;28;20471;-60
2023/01/20 08:42:34;;;;;;;68.87;26.03;;;7.70;96.40;;;;;;5048414;28;20477;-60
2023/01/20 08:45:01;;;;;;;52.57;20.53;;;8.00;95.60;;;;;;5067451;28;20478;-61
2023/01/20 08:47:28;;;;;;;60.37;23.47;;;8.20;95.50;;;;;;5073561;28;20553;-60
2023/01/20 08:49:54;;;;;;;45.30;21.43;;;8.10;94.80;;;;;;5044441;28;20518;-61
2023/01/20 08:52:21;;;;;;;46.90;20.20;;;11.80;95.70;;;;;;5045961;28;20514;-60
2023/01/20 08:54:51;;;;;;;45.13;19.67;;;7.50;95.10;;;;;;5045952;28;20589;-61
2023/01/20 08:57:18;;;;;;;49.23;19.47;;;7.00;95.20;;;;;;5067032;28;20583;-60
2023/01/20 08:59:47;;;;;;;42.77;20.17;;;;;;;;;;5041638;28;21350;-60
2023/01/20 09:02:14;;;;;;;55.63;19.93;;;5.90;96.60;;;;;;5067834;28;20574;-60
2023/01/20 09:04:41;;;;;;;56.07;22.00;;;6.10;97.30;;;;;;5053243;28;20487;-60
2023/01/20 09:07:10;;;;;;;38.13;17.00;;;6.10;97.20;;;;;;5046006;28;20792;-60
2023/01/20 09:09:36;;;;;;;66.43;24.70;;;6.60;97.10;;;;;;5055893;28;20478;-60
2023/01/20 09:12:04;;;;;;;54.43;19.00;;;6.90;96.70;;;;;;5065183;28;20504;-60
2023/01/20 09:14:31;;;;;;;57.83;26.57;;;6.90;95.90;;;;;;5073471;28;20927;-61
2023/01/20 09:17:00;;;;;;;45.13;20.10;;;7.10;96.30;;;;;;5061219;28;20474;-60
2023/01/20 09:19:27;;;;;;;78.20;21.60;;;10.20;97.20;;;;;;5075219;28;20568;-61
2023/01/20 09:21:54;;;;;;;48.10;20.07;;;7.20;96.40;;;;;;5073120;27;21083;-60
2023/01/20 09:24:21;;;;;;;41.97;19.03;;;7.30;95.90;;;;;;5064101;28;21056;-60
2023/01/20 09:26:48;;;;;;;50.47;21.57;;;6.90;95.90;;;;;;5040588;28;20879;-60
2023/01/20 09:29:15;;;;;;;44.60;18.40;;;;;;;;;;5060039;28;20663;-61
2023/01/20 09:31:44;;;;;;;54.67;23.17;;;6.40;96.50;;;;;;5065824;28;20463;-61
2023/01/20 09:34:17;;;;;;;49.20;19.90;;;;;;;;;;5039701;28;20491;-61
2023/01/20 09:36:44;;;;;;;51.33;19.20;;;;;;;;;;5053731;28;20502;-61
2023/01/20 09:44:50;;;;;;;44.23;17.10;;;6.30;96.70;;;;;;5040627;28;20577;-60
2023/01/20 09:47:27;;;;;;;49.97;16.73;;;6.20;97.10;;;;;;5078986;27;20481;-60
2023/01/20 09:53:06;;;;;;;43.13;18.77;;;6.50;97.50;;;;;;5043437;28;20486;-60
2023/01/20 09:55:44;;;;;;;70.00;24.30;;;5.80;97.70;;;;;;5039529;28;20936;-61
2023/01/20 09:58:20;;;;;;;27.30;11.30;;;5.80;97.70;;;;;;5055918;27;20867;-61
2023/01/20 10:00:51;;;;;;;52.43;18.77;;;5.70;97.60;;;;;;5062156;27;20941;-61
2023/01/20 10:03:24;;;;;;;39.00;14.57;;;5.70;97.90;;;;;;5055532;27;20522;-61
2023/01/20 10:05:58;;;;;;;38.73;15.87;;;5.70;97.50;;;;;;5069353;28;20483;-61
2023/01/20 10:08:32;;;;;;;44.17;15.37;;;5.70;97.50;;;;;;5051282;28;20486;-61
2023/01/20 10:11:06;;;;;;;49.57;15.33;;;5.70;97.30;;;;;;5037726;28;20813;-60
2023/01/20 10:13:37;;;;;;;64.20;18.90;;;5.60;97.30;;;;;;5047064;27;20500;-61
2023/01/20 10:16:11;;;;;;;46.97;15.13;;;5.50;97.40;;;;;;5060616;27;20488;-61
2023/01/20 10:18:40;;;;;;;50.73;17.23;;;;;;;;;;5049759;28;20801;-61
2023/01/20 10:21:10;;;;;;;38.90;15.00;;;;;;;;;;5028112;28;20517;-61
2023/01/20 10:23:44;;;;;;;56.90;15.90;;;5.40;97.40;;;;;;5060130;28;20488;-61
2023/01/20 10:26:13;;;;;;;36.40;13.63;;;;;;;;;;5044516;28;20556;-61
2023/01/20 10:28:44;;;;;;;59.90;19.23;;;2.50;97.20;;;;;;5064207;28;20491;-61
2023/01/20 10:31:14;;;;;;;50.90;16.47;;;4.90;98.00;;;;;;5041876;28;20709;-61
2023/01/20 10:33:44;;;;;;;68.80;22.47;;;4.70;98.20;;;;;;5042080;28;20480;-61
2023/01/20 10:36:18;;;;;;;31.80;9.57;;;4.70;98.70;;;;;;5050210;28;20479;-61
2023/01/20 10:38:53;;;;;;;38.93;14.13;;;3.80;98.10;;;;;;5040951;28;20471;-61
2023/01/20 10:41:26;;;;;;;34.50;12.23;;;5.00;97.70;;;;;;5034774;28;20624;-61
2023/01/20 10:43:53;;;;;;;37.30;11.70;;;5.00;97.60;;;;;;5030320;28;20490;-61
2023/01/20 10:46:51;;;;;;;35.43;12.73;;;5.10;97.70;;;;;;5066709;28;20510;-61
2023/01/20 10:49:33;;;;;;;33.13;12.03;;;;;;;;;;5027782;28;20545;-61
2023/01/20 10:52:13;;;;;;;32.30;9.60;;;4.60;97.10;;;;;;5065109;28;20476;-61
2023/01/20 10:54:47;;;;;;;50.63;15.67;;;4.50;97.70;;;;;;5051370;28;20478;-61
2023/01/20 10:57:15;;;;;;;34.90;11.50;;;4.50;97.90;;;;;;5027212;28;20490;-61
2023/01/20 10:59:45;;;;;;;37.33;13.40;;;4.60;97.90;;;;;;5066580;28;21355;-61
2023/01/20 11:02:20;;;;;;;23.13;8.77;;;4.70;98.20;;;;;;5048203;28;20844;-61
2023/01/20 11:04:54;;;;;;;37.27;11.57;;;4.80;97.90;;;;;;5068175;28;20476;-61
2023/01/20 11:07:22;;;;;;;38.07;12.43;;;;;;;;;;5054640;28;20893;-61
2023/01/20 11:09:49;;;;;;;38.33;14.97;;;;;;;;;;5069216;28;20486;-60
2023/01/20 11:12:19;;;;;;;49.47;15.03;;;4.90;98.00;;;;;;5049366;28;21093;-60
2023/01/20 11:14:47;;;;;;;41.73;12.03;;;5.00;98.40;;;;;;5052348;28;20483;-60
2023/01/20 11:17:16;;;;;;;31.70;10.90;;;5.00;98.60;;;;;;5056962;28;21200;-61
2023/01/20 11:19:48;;;;;;;41.63;16.43;;;5.10;98.50;;;;;;5051864;28;20586;-61
2023/01/20 11:22:19;;;;;;;23.40;7.60;;;5.10;97.10;;;;;;5043746;28;20475;-61
2023/01/20 11:24:48;;;;;;;26.00;8.10;;;5.60;97.00;;;;;;5043063;28;21166;-60
2023/01/20 11:27:16;;;;;;;19.80;8.00;;;4.90;96.30;;;;;;5051617;28;20992;-61
2023/01/20 11:29:48;;;;;;;32.63;7.87;;;4.80;96.90;;;;;;5041821;28;20522;-61
2023/01/20 11:32:29;;;;;;;17.27;5.83;;;4.70;96.70;;;;;;5035071;28;20478;-61
2023/01/20 11:34:57;;;;;;;27.70;7.87;;;4.70;97.20;;;;;;5045981;28;20487;-60
2023/01/20 11:37:25;;;;;;;29.67;10.70;;;7.00;98.10;;;;;;5064731;28;20502;-61
2023/01/20 11:40:03;;;;;;;27.27;6.83;;;4.60;97.10;;;;;;5053561;28;20828;-60
2023/01/20 11:42:40;;;;;;;40.00;12.07;;;4.60;97.60;;;;;;5056171;28;20461;-61
2023/01/20 11:45:24;;;;;;;29.87;12.40;;;4.50;97.80;;;;;;5057968;28;20477;-60
2023/01/20 11:48:00;;;;;;;42.93;13.80;;;3.60;97.60;;;;;;5055237;28;20501;-60
2023/01/20 11:50:30;;;;;;;35.07;12.13;;;;;;;;;;5049398;28;20475;-60
2023/01/20 11:53:16;;;;;;;27.03;11.07;;;4.60;98.00;;;;;;5049840;28;20587;-60
2023/01/20 11:55:50;;;;;;;34.63;12.47;;;4.50;97.50;;;;;;5051985;28;20642;-60
2023/01/20 11:58:18;;;;;;;26.47;8.23;;;;;;;;;;5041017;28;20783;-61
2023/01/20 12:00:45;;;;;;;33.43;14.07;;;4.50;98.50;;;;;;5053802;28;20563;-60
2023/01/20 12:03:20;;;;;;;16.43;7.03;;;;;;;;;;5055914;28;20494;-60
2023/01/20 12:05:52;;;;;;;34.27;12.40;;;4.50;97.80;;;;;;5046077;28;20907;-60
2023/01/20 12:08:21;;;;;;;23.60;7.70;;;;;;;;;;5055879;28;20507;-60
2023/01/20 12:10:50;;;;;;;35.33;11.60;;;4.50;98.20;;;;;;5053111;28;21018;-60
2023/01/20 12:13:20;;;;;;;20.37;9.20;;;;;;;;;;5053792;28;20486;-60
2023/01/20 12:15:51;;;;;;;32.77;11.90;;;4.70;98.10;;;;;;5054093;28;21067;-60
2023/01/20 12:18:22;;;;;;;14.73;6.67;;;;;;;;;;5052690;28;20482;-60
2023/01/20 12:20:57;;;;;;;37.57;12.50;;;4.50;98.10;;;;;;5048806;28;20472;-59
2023/01/20 12:23:38;;;;;;;30.37;11.30;;;4.40;98.00;;;;;;5041655;28;20474;-60
2023/01/20 12:26:08;;;;;;;20.77;8.37;;;4.50;98.40;;;;;;5048535;28;20849;-60
2023/01/20 12:28:40;;;;;;;30.50;11.43;;;4.50;97.80;;;;;;5055746;28;20474;-60
2023/01/20 12:31:10;;;;;;;22.63;6.90;;;4.50;98.20;;;;;;5065532;28;20479;-60
2023/01/20 12:33:38;;;;;;;39.13;11.97;;;4.60;98.10;;;;;;5053722;28;20510;-60
2023/01/20 12:36:40;;;;;;;25.43;9.07;;;4.60;97.70;;;;;;5052747;28;20741;-60
2023/01/20 12:39:18;;;;;;;28.57;9.27;;;;;;;;;;5052999;28;20833;-60
2023/01/20 12:41:59;;;;;;;22.83;10.90;;;;;;;;;;5049768;28;21045;-60
2023/01/20 12:44:31;;;;;;;38.37;12.30;;;4.60;97.30;;;;;;5048108;28;20835;-60
2023/01/20 12:47:06;;;;;;;31.73;8.77;;;4.70;97.50;;;;;;5041328;28;20513;-60
2023/01/20 12:49:47;;;;;;;46.43;13.17;;;4.80;96.90;;;;;;5040460;28;20486;-60
2023/01/20 12:52:26;;;;;;;23.57;7.13;;;4.80;97.00;;;;;;5051727;28;20784;-60
2023/01/20 12:55:13;;;;;;;19.37;6.60;;;4.80;96.90;;;;;;5051548;28;20490;-60
2023/01/20 12:57:51;;;;;;;33.53;12.17;;;4.80;96.70;;;;;;5048845;28;21009;-60
2023/01/20 13:00:37;;;;;;;22.47;10.23;;;4.80;96.50;;;;;;5069599;28;20499;-60
2023/01/20 13:03:31;;;;;;;30.60;9.23;;;;;;;;;;5043150;28;20483;-60
2023/01/20 13:06:06;;;;;;;27.70;8.93;;;;;;;;;;5047423;28;21946;-59
2023/01/20 13:08:40;;;;;;;37.53;13.50;;;4.90;97.30;;;;;;5036933;28;21017;-59
2023/01/20 13:11:16;;;;;;;31.60;8.77;;;5.00;97.20;;;;;;5082328;28;20485;-60
2023/01/20 13:13:57;;;;;;;31.13;10.53;;;5.00;96.90;;;;;;5073396;28;20547;-59
2023/01/20 13:16:33;;;;;;;34.10;13.03;;;4.90;97.10;;;;;;5050811;28;20780;-60
2023/01/20 13:19:04;;;;;;;23.17;7.60;;;;;;;;;;5044735;28;20993;-60
2023/01/20 13:21:31;;;;;;;27.47;9.13;;;4.80;97.00;;;;;;5054834;28;20566;-60